sensor_id;sensor_type;location;lat;lon;timestamp;temperature;humidity
52743;DHT22;55583;53.012;6.556;2023-07-20T00:01:57;15.10;99.90
52743;DHT22;55583;53.012;6.556;2023-07-20T00:04:23;15.10;99.90
52743;DHT22;55583;53.012;6.556;2023-07-20T00:06:49;15.10;99.90
52743;DHT22;55583;53.012;6.556;2023-07-20T00:09:14;15.10;99.90
52743;DHT22;55583;53.012;6.556;2023-07-20T00:11:40;15.00;99.90
52743;DHT22;55583;53.012;6.556;2023-07-20T00:14:06;15.00;99.90
52743;DHT22;55583;53.012;6.556;2023-07-20T00:16:32;15.00;99.90
52743;DHT22;55583;53.012;6.556;2023-07-20T00:18:58;14.90;99.90
52743;DHT22;55583;53.012;6.556;2023-07-20T00:21:23;14.90;99.90
52743;DHT22;55583;53.012;6.556;2023-07-20T00:23:49;14.80;99.90
52743;DHT22;55583;53.012;6.556;2023-07-20T00:26:15;14.80;99.90
52743;DHT22;55583;53.012;6.556;2023-07-20T00:28:40;14.80;99.90
52743;DHT22;55583;53.012;6.556;2023-07-20T00:31:06;14.70;99.90
52743;DHT22;55583;53.012;6.556;2023-07-20T00:33:32;14.70;99.90
52743;DHT22;55583;53.012;6.556;2023-07-20T00:35:58;14.80;99.90
52743;DHT22;55583;53.012;6.556;2023-07-20T00:38:23;14.70;99.90
52743;DHT22;55583;53.012;6.556;2023-07-20T00:40:49;14.80;99.90
52743;DHT22;55583;53.012;6.556;2023-07-20T00:43:15;14.70;99.90
52743;DHT22;55583;53.012;6.556;2023-07-20T00:45:41;14.70;99.90
52743;DHT22;55583;53.012;6.556;2023-07-20T00:48:06;14.70;99.90
52743;DHT22;55583;53.012;6.556;2023-07-20T00:50:34;14.70;99.90
52743;DHT22;55583;53.012;6.556;2023-07-20T00:53:00;14.50;99.90
52743;DHT22;55583;53.012;6.556;2023-07-20T00:55:27;14.60;99.90
52743;DHT22;55583;53.012;6.556;2023-07-20T00:57:53;14.50;99.90
52743;DHT22;55583;53.012;6.556;2023-07-20T01:00:19;14.60;99.90
52743;DHT22;55583;53.012;6.556;2023-07-20T01:02:45;14.40;99.90
52743;DHT22;55583;53.012;6.556;2023-07-20T01:05:12;14.30;99.90
52743;DHT22;55583;53.012;6.556;2023-07-20T01:07:46;14.20;99.90
52743;DHT22;55583;53.012;6.556;2023-07-20T01:10:40;14.20;99.90
52743;DHT22;55583;53.012;6.556;2023-07-20T01:13:10;14.20;99.90
52743;DHT22;55583;53.012;6.556;2023-07-20T01:15:36;14.10;99.90
52743;DHT22;55583;53.012;6.556;2023-07-20T01:18:02;14.10;99.90
52743;DHT22;55583;53.012;6.556;2023-07-20T01:20:31;13.90;99.90
52743;DHT22;55583;53.012;6.556;2023-07-20T01:29:09;13.70;99.90
52743;DHT22;55583;53.012;6.556;2023-07-20T01:31:38;13.70;99.90
52743;DHT22;55583;53.012;6.556;2023-07-20T01:34:04;13.60;99.90
52743;DHT22;55583;53.012;6.556;2023-07-20T01:36:34;13.60;99.90
52743;DHT22;55583;53.012;6.556;2023-07-20T01:39:00;13.50;99.90
52743;DHT22;55583;53.012;6.556;2023-07-20T01:41:27;13.50;99.90
52743;DHT22;55583;53.012;6.556;2023-07-20T01:43:53;13.40;99.90
52743;DHT22;55583;53.012;6.556;2023-07-20T01:46:22;13.30;99.90
52743;DHT22;55583;53.012;6.556;2023-07-20T01:48:48;13.30;99.90
52743;DHT22;55583;53.012;6.556;2023-07-20T01:51:13;13.30;99.90
52743;DHT22;55583;53.012;6.556;2023-07-20T01:53:39;13.20;99.90
52743;DHT22;55583;53.012;6.556;2023-07-20T01:56:05;13.10;99.90
52743;DHT22;55583;53.012;6.556;2023-07-20T01:58:31;13.10;99.90
52743;DHT22;55583;53.012;6.556;2023-07-20T02:00:56;13.10;99.90
52743;DHT22;55583;53.012;6.556;2023-07-20T02:03:22;13.00;99.90
52743;DHT22;55583;53.012;6.556;2023-07-20T02:05:49;13.00;99.90
52743;DHT22;55583;53.012;6.556;2023-07-20T02:08:15;13.00;99.90
52743;DHT22;55583;53.012;6.556;2023-07-20T02:10:41;12.90;99.90
52743;DHT22;55583;53.012;6.556;2023-07-20T02:13:07;13.10;99.90
52743;DHT22;55583;53.012;6.556;2023-07-20T02:15:33;12.90;99.90
52743;DHT22;55583;53.012;6.556;2023-07-20T02:17:58;12.90;99.90
52743;DHT22;55583;53.012;6.556;2023-07-20T02:20:24;12.80;99.90
52743;DHT22;55583;53.012;6.556;2023-07-20T02:22:50;12.80;99.90
52743;DHT22;55583;53.012;6.556;2023-07-20T02:25:15;12.80;99.90
52743;DHT22;55583;53.012;6.556;2023-07-20T02:27:41;12.70;99.90
52743;DHT22;55583;53.012;6.556;2023-07-20T02:30:07;12.70;99.90
52743;DHT22;55583;53.012;6.556;2023-07-20T02:32:34;12.70;99.90
52743;DHT22;55583;53.012;6.556;2023-07-20T02:35:00;12.60;99.90
52743;DHT22;55583;53.012;6.556;2023-07-20T02:37:26;12.60;99.90
52743;DHT22;55583;53.012;6.556;2023-07-20T02:39:51;12.70;99.90
52743;DHT22;55583;53.012;6.556;2023-07-20T02:42:17;12.50;99.90
52743;DHT22;55583;53.012;6.556;2023-07-20T02:44:43;12.50;99.90
52743;DHT22;55583;53.012;6.556;2023-07-20T02:47:08;12.50;99.90
52743;DHT22;55583;53.012;6.556;2023-07-20T02:49:34;12.40;99.90
52743;DHT22;55583;53.012;6.556;2023-07-20T02:52:00;12.40;99.90
52743;DHT22;55583;53.012;6.556;2023-07-20T02:54:26;12.30;99.90
52743;DHT22;55583;53.012;6.556;2023-07-20T02:56:51;12.30;99.90
52743;DHT22;55583;53.012;6.556;2023-07-20T02:59:17;12.30;99.90
52743;DHT22;55583;53.012;6.556;2023-07-20T03:01:44;12.20;99.90
52743;DHT22;55583;53.012;6.556;2023-07-20T03:04:09;12.20;99.90
52743;DHT22;55583;53.012;6.556;2023-07-20T03:06:38;12.10;99.90
52743;DHT22;55583;53.012;6.556;2023-07-20T03:09:04;12.10;99.90
52743;DHT22;55583;53.012;6.556;2023-07-20T03:11:30;12.10;99.90
52743;DHT22;55583;53.012;6.556;2023-07-20T03:13:55;12.20;99.90
52743;DHT22;55583;53.012;6.556;2023-07-20T03:16:23;12.00;99.90
52743;DHT22;55583;53.012;6.556;2023-07-20T03:18:49;12.00;99.90
52743;DHT22;55583;53.012;6.556;2023-07-20T03:21:14;12.00;99.90
52743;DHT22;55583;53.012;6.556;2023-07-20T03:23:41;11.90;99.90
52743;DHT22;55583;53.012;6.556;2023-07-20T03:26:07;11.90;99.90
52743;DHT22;55583;53.012;6.556;2023-07-20T03:28:36;11.80;99.90
52743;DHT22;55583;53.012;6.556;2023-07-20T03:31:02;12.20;99.90
52743;DHT22;55583;53.012;6.556;2023-07-20T03:33:29;11.80;99.90
52743;DHT22;55583;53.012;6.556;2023-07-20T03:35:55;11.80;99.90
52743;DHT22;55583;53.012;6.556;2023-07-20T03:38:22;11.80;99.90
52743;DHT22;55583;53.012;6.556;2023-07-20T03:40:51;11.70;99.90
52743;DHT22;55583;53.012;6.556;2023-07-20T03:43:17;11.80;99.90
52743;DHT22;55583;53.012;6.556;2023-07-20T03:45:43;11.70;99.90
52743;DHT22;55583;53.012;6.556;2023-07-20T03:48:09;11.70;99.90
52743;DHT22;55583;53.012;6.556;2023-07-20T03:50:34;11.70;99.90
52743;DHT22;55583;53.012;6.556;2023-07-20T03:53:00;11.70;99.90
52743;DHT22;55583;53.012;6.556;2023-07-20T03:55:26;11.70;99.90
52743;DHT22;55583;53.012;6.556;2023-07-20T03:57:51;11.60;99.90
52743;DHT22;55583;53.012;6.556;2023-07-20T04:00:18;11.70;99.90
52743;DHT22;55583;53.012;6.556;2023-07-20T04:02:43;11.60;99.90
52743;DHT22;55583;53.012;6.556;2023-07-20T04:05:09;11.70;99.90
52743;DHT22;55583;53.012;6.556;2023-07-20T04:07:35;11.60;99.90
52743;DHT22;55583;53.012;6.556;2023-07-20T04:10:01;11.60;99.90
52743;DHT22;55583;53.012;6.556;2023-07-20T04:12:26;11.60;99.90
52743;DHT22;55583;53.012;6.556;2023-07-20T04:14:52;11.60;99.90
52743;DHT22;55583;53.012;6.556;2023-07-20T04:17:18;11.60;99.90
52743;DHT22;55583;53.012;6.556;2023-07-20T04:19:44;11.60;99.90
52743;DHT22;55583;53.012;6.556;2023-07-20T04:22:10;11.60;99.90
52743;DHT22;55583;53.012;6.556;2023-07-20T04:24:35;11.60;99.90
52743;DHT22;55583;53.012;6.556;2023-07-20T04:27:01;11.80;99.90
52743;DHT22;55583;53.012;6.556;2023-07-20T04:29:27;11.70;99.90
52743;DHT22;55583;53.012;6.556;2023-07-20T04:31:52;11.70;99.90
52743;DHT22;55583;53.012;6.556;2023-07-20T04:34:18;11.70;99.90
52743;DHT22;55583;53.012;6.556;2023-07-20T04:36:44;11.70;99.90
52743;DHT22;55583;53.012;6.556;2023-07-20T04:39:10;11.70;99.90
52743;DHT22;55583;53.012;6.556;2023-07-20T04:41:35;11.70;99.90
52743;DHT22;55583;53.012;6.556;2023-07-20T04:44:01;11.70;99.90
52743;DHT22;55583;53.012;6.556;2023-07-20T04:46:27;11.80;99.90
52743;DHT22;55583;53.012;6.556;2023-07-20T04:48:52;11.80;99.90
52743;DHT22;55583;53.012;6.556;2023-07-20T04:51:18;11.90;99.90
52743;DHT22;55583;53.012;6.556;2023-07-20T04:53:47;11.90;99.90
52743;DHT22;55583;53.012;6.556;2023-07-20T04:56:12;12.00;99.90
52743;DHT22;55583;53.012;6.556;2023-07-20T04:58:38;12.00;99.90
52743;DHT22;55583;53.012;6.556;2023-07-20T05:01:04;12.10;99.90
52743;DHT22;55583;53.012;6.556;2023-07-20T05:03:29;12.10;99.90
52743;DHT22;55583;53.012;6.556;2023-07-20T05:05:55;12.10;99.90
52743;DHT22;55583;53.012;6.556;2023-07-20T05:08:21;12.20;99.90
52743;DHT22;55583;53.012;6.556;2023-07-20T05:10:47;12.30;99.90
52743;DHT22;55583;53.012;6.556;2023-07-20T05:13:14;12.30;99.90
52743;DHT22;55583;53.012;6.556;2023-07-20T05:15:39;12.40;99.90
52743;DHT22;55583;53.012;6.556;2023-07-20T05:18:05;12.40;99.90
52743;DHT22;55583;53.012;6.556;2023-07-20T05:20:31;12.40;99.90
52743;DHT22;55583;53.012;6.556;2023-07-20T05:22:59;12.50;99.90
52743;DHT22;55583;53.012;6.556;2023-07-20T05:25:24;12.50;99.90
52743;DHT22;55583;53.012;6.556;2023-07-20T05:27:50;12.60;99.90
52743;DHT22;55583;53.012;6.556;2023-07-20T05:30:16;12.60;99.90
52743;DHT22;55583;53.012;6.556;2023-07-20T05:32:41;12.60;99.90
52743;DHT22;55583;53.012;6.556;2023-07-20T05:35:09;12.70;99.90
52743;DHT22;55583;53.012;6.556;2023-07-20T05:37:37;12.80;99.90
52743;DHT22;55583;53.012;6.556;2023-07-20T05:40:03;12.90;99.90
52743;DHT22;55583;53.012;6.556;2023-07-20T05:42:29;13.00;99.90
52743;DHT22;55583;53.012;6.556;2023-07-20T05:44:55;13.10;99.90
52743;DHT22;55583;53.012;6.556;2023-07-20T05:47:21;13.10;99.90
52743;DHT22;55583;53.012;6.556;2023-07-20T05:49:47;13.20;99.90
52743;DHT22;55583;53.012;6.556;2023-07-20T05:52:13;13.20;99.90
52743;DHT22;55583;53.012;6.556;2023-07-20T05:54:39;13.30;99.90
52743;DHT22;55583;53.012;6.556;2023-07-20T05:57:04;13.50;99.90
52743;DHT22;55583;53.012;6.556;2023-07-20T05:59:30;13.50;99.90
52743;DHT22;55583;53.012;6.556;2023-07-20T06:01:57;13.60;99.90
52743;DHT22;55583;53.012;6.556;2023-07-20T06:04:22;13.80;99.90
52743;DHT22;55583;53.012;6.556;2023-07-20T06:06:49;13.90;99.90
52743;DHT22;55583;53.012;6.556;2023-07-20T06:09:14;14.00;99.90
52743;DHT22;55583;53.012;6.556;2023-07-20T06:11:40;14.10;99.90
52743;DHT22;55583;53.012;6.556;2023-07-20T06:14:06;14.40;99.90
52743;DHT22;55583;53.012;6.556;2023-07-20T06:16:32;14.60;99.90
52743;DHT22;55583;53.012;6.556;2023-07-20T06:18:59;14.80;99.90
52743;DHT22;55583;53.012;6.556;2023-07-20T06:21:25;15.10;99.90
52743;DHT22;55583;53.012;6.556;2023-07-20T06:23:51;15.50;99.90
52743;DHT22;55583;53.012;6.556;2023-07-20T06:26:16;15.70;99.90
52743;DHT22;55583;53.012;6.556;2023-07-20T06:28:42;16.00;99.90
52743;DHT22;55583;53.012;6.556;2023-07-20T06:31:08;16.30;99.90
52743;DHT22;55583;53.012;6.556;2023-07-20T06:33:33;16.70;99.90
52743;DHT22;55583;53.012;6.556;2023-07-20T06:36:00;17.00;99.90
52743;DHT22;55583;53.012;6.556;2023-07-20T06:38:26;17.30;99.90
52743;DHT22;55583;53.012;6.556;2023-07-20T06:40:52;17.60;99.90
52743;DHT22;55583;53.012;6.556;2023-07-20T06:43:18;17.90;99.90
52743;DHT22;55583;53.012;6.556;2023-07-20T06:45:44;18.10;99.90
52743;DHT22;55583;53.012;6.556;2023-07-20T06:48:09;18.20;99.90
52743;DHT22;55583;53.012;6.556;2023-07-20T06:50:35;18.40;99.90
52743;DHT22;55583;53.012;6.556;2023-07-20T06:53:01;18.40;99.90
52743;DHT22;55583;53.012;6.556;2023-07-20T06:55:29;18.30;99.90
52743;DHT22;55583;53.012;6.556;2023-07-20T06:57:55;18.30;99.90
52743;DHT22;55583;53.012;6.556;2023-07-20T07:00:20;18.00;99.90
52743;DHT22;55583;53.012;6.556;2023-07-20T07:02:46;17.70;99.90
52743;DHT22;55583;53.012;6.556;2023-07-20T07:05:12;17.80;99.90
52743;DHT22;55583;53.012;6.556;2023-07-20T07:07:39;18.10;99.90
52743;DHT22;55583;53.012;6.556;2023-07-20T07:10:06;18.50;99.90
52743;DHT22;55583;53.012;6.556;2023-07-20T07:12:31;18.90;99.90
52743;DHT22;55583;53.012;6.556;2023-07-20T07:14:57;19.00;99.90
52743;DHT22;55583;53.012;6.556;2023-07-20T07:17:23;18.90;99.90
52743;DHT22;55583;53.012;6.556;2023-07-20T07:19:49;18.70;98.60
52743;DHT22;55583;53.012;6.556;2023-07-20T07:22:15;18.40;98.60
52743;DHT22;55583;53.012;6.556;2023-07-20T07:24:40;18.10;98.90
52743;DHT22;55583;53.012;6.556;2023-07-20T07:27:09;17.80;99.60
52743;DHT22;55583;53.012;6.556;2023-07-20T07:29:34;17.60;99.70
52743;DHT22;55583;53.012;6.556;2023-07-20T07:32:01;17.40;99.90
52743;DHT22;55583;53.012;6.556;2023-07-20T07:34:27;17.30;99.90
52743;DHT22;55583;53.012;6.556;2023-07-20T07:36:53;17.30;99.90
52743;DHT22;55583;53.012;6.556;2023-07-20T07:39:19;17.20;99.90
52743;DHT22;55583;53.012;6.556;2023-07-20T07:41:44;17.20;99.90
52743;DHT22;55583;53.012;6.556;2023-07-20T07:44:10;17.20;99.90
52743;DHT22;55583;53.012;6.556;2023-07-20T07:46:36;17.30;99.90
52743;DHT22;55583;53.012;6.556;2023-07-20T07:49:01;17.20;99.90
52743;DHT22;55583;53.012;6.556;2023-07-20T07:51:27;17.20;99.90
52743;DHT22;55583;53.012;6.556;2023-07-20T07:53:53;17.20;99.90
52743;DHT22;55583;53.012;6.556;2023-07-20T07:56:18;17.20;99.90
52743;DHT22;55583;53.012;6.556;2023-07-20T07:58:49;17.40;99.90
52743;DHT22;55583;53.012;6.556;2023-07-20T08:01:15;17.60;99.90
52743;DHT22;55583;53.012;6.556;2023-07-20T08:03:40;17.70;99.50
52743;DHT22;55583;53.012;6.556;2023-07-20T08:06:06;17.80;98.60
52743;DHT22;55583;53.012;6.556;2023-07-20T08:08:32;17.90;98.20
52743;DHT22;55583;53.012;6.556;2023-07-20T08:10:58;17.90;97.70
52743;DHT22;55583;53.012;6.556;2023-07-20T08:13:24;17.90;98.10
52743;DHT22;55583;53.012;6.556;2023-07-20T08:15:51;18.10;96.90
52743;DHT22;55583;53.012;6.556;2023-07-20T08:18:19;18.20;95.60
52743;DHT22;55583;53.012;6.556;2023-07-20T08:20:45;18.20;94.10
52743;DHT22;55583;53.012;6.556;2023-07-20T08:23:12;18.20;93.30
52743;DHT22;55583;53.012;6.556;2023-07-20T08:25:39;18.10;93.40
52743;DHT22;55583;53.012;6.556;2023-07-20T08:28:07;18.10;93.70
52743;DHT22;55583;53.012;6.556;2023-07-20T08:30:45;18.20;93.20
52743;DHT22;55583;53.012;6.556;2023-07-20T08:33:14;18.40;92.70
52743;DHT22;55583;53.012;6.556;2023-07-20T08:35:39;18.50;91.30
52743;DHT22;55583;53.012;6.556;2023-07-20T08:38:05;18.60;90.60
52743;DHT22;55583;53.012;6.556;2023-07-20T08:40:33;18.60;88.90
52743;DHT22;55583;53.012;6.556;2023-07-20T08:43:00;18.70;85.30
52743;DHT22;55583;53.012;6.556;2023-07-20T08:45:28;18.80;84.40
52743;DHT22;55583;53.012;6.556;2023-07-20T08:47:56;19.10;82.80
52743;DHT22;55583;53.012;6.556;2023-07-20T08:50:28;19.40;82.70
52743;DHT22;55583;53.012;6.556;2023-07-20T08:52:57;19.90;81.70
52743;DHT22;55583;53.012;6.556;2023-07-20T08:55:23;20.50;78.60
52743;DHT22;55583;53.012;6.556;2023-07-20T08:57:59;20.50;77.40
52743;DHT22;55583;53.012;6.556;2023-07-20T09:00:26;20.60;76.80
52743;DHT22;55583;53.012;6.556;2023-07-20T09:02:53;20.80;78.20
52743;DHT22;55583;53.012;6.556;2023-07-20T09:05:20;20.90;77.60
52743;DHT22;55583;53.012;6.556;2023-07-20T09:07:46;21.00;76.90
52743;DHT22;55583;53.012;6.556;2023-07-20T09:10:12;21.30;74.70
52743;DHT22;55583;53.012;6.556;2023-07-20T09:12:39;21.90;73.60
52743;DHT22;55583;53.012;6.556;2023-07-20T09:15:06;23.20;69.30
52743;DHT22;55583;53.012;6.556;2023-07-20T09:17:32;24.30;66.40
52743;DHT22;55583;53.012;6.556;2023-07-20T09:19:58;24.90;64.40
52743;DHT22;55583;53.012;6.556;2023-07-20T09:22:30;25.50;63.40
52743;DHT22;55583;53.012;6.556;2023-07-20T09:24:57;25.20;62.00
52743;DHT22;55583;53.012;6.556;2023-07-20T09:27:29;25.80;62.60
52743;DHT22;55583;53.012;6.556;2023-07-20T09:29:56;26.80;61.50
52743;DHT22;55583;53.012;6.556;2023-07-20T09:32:22;28.00;59.90
52743;DHT22;55583;53.012;6.556;2023-07-20T09:34:49;29.10;58.20
52743;DHT22;55583;53.012;6.556;2023-07-20T09:37:23;30.20;56.20
52743;DHT22;55583;53.012;6.556;2023-07-20T09:39:52;30.90;53.50
52743;DHT22;55583;53.012;6.556;2023-07-20T09:42:18;30.30;52.40
52743;DHT22;55583;53.012;6.556;2023-07-20T09:44:46;30.00;53.50
52743;DHT22;55583;53.012;6.556;2023-07-20T09:47:12;30.70;52.50
52743;DHT22;55583;53.012;6.556;2023-07-20T09:49:40;31.40;50.50
52743;DHT22;55583;53.012;6.556;2023-07-20T09:52:11;32.10;48.30
52743;DHT22;55583;53.012;6.556;2023-07-20T09:54:40;32.50;48.20
52743;DHT22;55583;53.012;6.556;2023-07-20T09:57:11;31.50;46.90
52743;DHT22;55583;53.012;6.556;2023-07-20T09:59:38;31.20;48.10
52743;DHT22;55583;53.012;6.556;2023-07-20T10:02:11;31.80;47.70
52743;DHT22;55583;53.012;6.556;2023-07-20T10:04:39;33.10;47.50
52743;DHT22;55583;53.012;6.556;2023-07-20T10:07:09;34.20;47.40
52743;DHT22;55583;53.012;6.556;2023-07-20T10:09:39;34.20;45.90
52743;DHT22;55583;53.012;6.556;2023-07-20T10:12:07;33.10;47.00
52743;DHT22;55583;53.012;6.556;2023-07-20T10:14:36;32.00;47.70
52743;DHT22;55583;53.012;6.556;2023-07-20T10:17:05;30.90;49.00
52743;DHT22;55583;53.012;6.556;2023-07-20T10:19:50;29.60;49.70
52743;DHT22;55583;53.012;6.556;2023-07-20T10:22:25;28.40;50.80
52743;DHT22;55583;53.012;6.556;2023-07-20T10:24:51;27.30;51.60
52743;DHT22;55583;53.012;6.556;2023-07-20T10:27:20;26.50;53.60
52743;DHT22;55583;53.012;6.556;2023-07-20T10:29:47;26.70;54.00
52743;DHT22;55583;53.012;6.556;2023-07-20T10:32:13;27.20;53.10
52743;DHT22;55583;53.012;6.556;2023-07-20T10:34:39;26.80;52.80
52743;DHT22;55583;53.012;6.556;2023-07-20T10:37:05;26.50;53.90
52743;DHT22;55583;53.012;6.556;2023-07-20T10:39:33;26.20;53.90
52743;DHT22;55583;53.012;6.556;2023-07-20T10:42:12;26.40;54.00
52743;DHT22;55583;53.012;6.556;2023-07-20T10:44:38;27.50;53.20
52743;DHT22;55583;53.012;6.556;2023-07-20T10:47:12;28.80;51.00
52743;DHT22;55583;53.012;6.556;2023-07-20T10:50:00;30.30;48.00
52743;DHT22;55583;53.012;6.556;2023-07-20T10:52:26;31.30;46.20
52743;DHT22;55583;53.012;6.556;2023-07-20T10:54:51;31.70;45.80
52743;DHT22;55583;53.012;6.556;2023-07-20T10:57:30;31.50;46.20
52743;DHT22;55583;53.012;6.556;2023-07-20T11:00:13;31.90;45.70
52743;DHT22;55583;53.012;6.556;2023-07-20T11:02:47;32.30;43.60
52743;DHT22;55583;53.012;6.556;2023-07-20T11:05:36;32.30;45.00
52743;DHT22;55583;53.012;6.556;2023-07-20T11:08:38;32.10;43.00
52743;DHT22;55583;53.012;6.556;2023-07-20T11:11:26;31.60;45.10
52743;DHT22;55583;53.012;6.556;2023-07-20T11:13:58;31.10;45.60
52743;DHT22;55583;53.012;6.556;2023-07-20T11:18:59;29.30;48.40
52743;DHT22;55583;53.012;6.556;2023-07-20T11:21:25;28.70;49.80
52743;DHT22;55583;53.012;6.556;2023-07-20T11:23:55;28.00;50.30
52743;DHT22;55583;53.012;6.556;2023-07-20T11:26:21;27.30;50.90
52743;DHT22;55583;53.012;6.556;2023-07-20T11:28:50;26.60;52.00
52743;DHT22;55583;53.012;6.556;2023-07-20T11:31:18;26.00;52.60
52743;DHT22;55583;53.012;6.556;2023-07-20T11:33:43;25.40;52.70
52743;DHT22;55583;53.012;6.556;2023-07-20T11:36:09;24.90;53.20
52743;DHT22;55583;53.012;6.556;2023-07-20T11:38:35;24.40;53.90
52743;DHT22;55583;53.012;6.556;2023-07-20T11:41:03;24.10;54.30
52743;DHT22;55583;53.012;6.556;2023-07-20T11:43:29;23.80;54.40
52743;DHT22;55583;53.012;6.556;2023-07-20T11:45:55;23.70;54.20
52743;DHT22;55583;53.012;6.556;2023-07-20T11:48:21;23.60;54.90
52743;DHT22;55583;53.012;6.556;2023-07-20T11:50:47;24.40;55.20
52743;DHT22;55583;53.012;6.556;2023-07-20T11:53:13;26.30;52.20
52743;DHT22;55583;53.012;6.556;2023-07-20T11:55:42;27.90;50.60
52743;DHT22;55583;53.012;6.556;2023-07-20T11:58:09;29.20;48.00
52743;DHT22;55583;53.012;6.556;2023-07-20T12:00:36;30.50;48.40
52743;DHT22;55583;53.012;6.556;2023-07-20T12:03:05;31.00;47.40
52743;DHT22;55583;53.012;6.556;2023-07-20T12:05:36;30.50;47.60
52743;DHT22;55583;53.012;6.556;2023-07-20T12:08:01;29.50;48.50
52743;DHT22;55583;53.012;6.556;2023-07-20T12:10:28;29.10;49.30
52743;DHT22;55583;53.012;6.556;2023-07-20T12:12:54;29.10;49.00
52743;DHT22;55583;53.012;6.556;2023-07-20T12:15:22;28.80;48.80
52743;DHT22;55583;53.012;6.556;2023-07-20T12:17:52;28.00;49.20
52743;DHT22;55583;53.012;6.556;2023-07-20T12:20:31;27.20;50.40
52743;DHT22;55583;53.012;6.556;2023-07-20T12:23:09;26.50;52.10
52743;DHT22;55583;53.012;6.556;2023-07-20T12:28:09;25.00;54.90
52743;DHT22;55583;53.012;6.556;2023-07-20T12:30:35;24.50;56.60
52743;DHT22;55583;53.012;6.556;2023-07-20T12:33:02;24.10;57.80
52743;DHT22;55583;53.012;6.556;2023-07-20T12:35:29;23.90;58.60
52743;DHT22;55583;53.012;6.556;2023-07-20T12:37:54;23.70;59.10
52743;DHT22;55583;53.012;6.556;2023-07-20T12:40:20;23.70;59.00
52743;DHT22;55583;53.012;6.556;2023-07-20T12:42:46;23.90;58.50
52743;DHT22;55583;53.012;6.556;2023-07-20T12:45:13;24.10;57.60
52743;DHT22;55583;53.012;6.556;2023-07-20T12:47:39;24.40;56.70
52743;DHT22;55583;53.012;6.556;2023-07-20T12:50:06;24.60;56.20
52743;DHT22;55583;53.012;6.556;2023-07-20T12:52:35;24.80;56.20
52743;DHT22;55583;53.012;6.556;2023-07-20T12:55:02;24.90;56.00
52743;DHT22;55583;53.012;6.556;2023-07-20T12:57:28;25.00;56.10
52743;DHT22;55583;53.012;6.556;2023-07-20T12:59:53;25.80;55.20
52743;DHT22;55583;53.012;6.556;2023-07-20T13:02:19;26.90;53.60
52743;DHT22;55583;53.012;6.556;2023-07-20T13:04:44;27.60;52.00
52743;DHT22;55583;53.012;6.556;2023-07-20T13:07:10;27.60;51.30
52743;DHT22;55583;53.012;6.556;2023-07-20T13:09:38;27.10;51.40
52743;DHT22;55583;53.012;6.556;2023-07-20T13:12:04;26.50;51.50
52743;DHT22;55583;53.012;6.556;2023-07-20T13:14:30;26.00;52.50
52743;DHT22;55583;53.012;6.556;2023-07-20T13:16:56;25.50;53.00
52743;DHT22;55583;53.012;6.556;2023-07-20T13:19:22;25.00;53.60
52743;DHT22;55583;53.012;6.556;2023-07-20T13:21:48;24.60;54.20
52743;DHT22;55583;53.012;6.556;2023-07-20T13:24:13;24.30;54.40
52743;DHT22;55583;53.012;6.556;2023-07-20T13:26:39;24.00;54.70
52743;DHT22;55583;53.012;6.556;2023-07-20T13:29:05;23.60;55.40
52743;DHT22;55583;53.012;6.556;2023-07-20T13:31:30;23.30;57.00
52743;DHT22;55583;53.012;6.556;2023-07-20T13:33:57;23.10;58.50
52743;DHT22;55583;53.012;6.556;2023-07-20T13:36:24;23.00;59.40
52743;DHT22;55583;53.012;6.556;2023-07-20T13:38:49;23.00;59.80
52743;DHT22;55583;53.012;6.556;2023-07-20T13:41:15;23.30;60.00
52743;DHT22;55583;53.012;6.556;2023-07-20T13:43:42;23.50;59.50
52743;DHT22;55583;53.012;6.556;2023-07-20T13:46:07;23.70;58.50
52743;DHT22;55583;53.012;6.556;2023-07-20T13:48:33;23.60;58.10
52743;DHT22;55583;53.012;6.556;2023-07-20T13:50:59;23.40;59.30
52743;DHT22;55583;53.012;6.556;2023-07-20T13:53:24;23.10;60.00
52743;DHT22;55583;53.012;6.556;2023-07-20T13:55:50;23.00;61.20
52743;DHT22;55583;53.012;6.556;2023-07-20T13:58:17;22.80;61.40
52743;DHT22;55583;53.012;6.556;2023-07-20T14:00:43;22.80;61.60
52743;DHT22;55583;53.012;6.556;2023-07-20T14:03:08;22.70;61.90
52743;DHT22;55583;53.012;6.556;2023-07-20T14:05:34;22.80;62.20
52743;DHT22;55583;53.012;6.556;2023-07-20T14:08:00;23.10;61.80
52743;DHT22;55583;53.012;6.556;2023-07-20T14:10:26;23.40;61.50
52743;DHT22;55583;53.012;6.556;2023-07-20T14:12:51;23.50;61.50
52743;DHT22;55583;53.012;6.556;2023-07-20T14:15:17;23.50;61.20
52743;DHT22;55583;53.012;6.556;2023-07-20T14:17:44;23.50;61.30
52743;DHT22;55583;53.012;6.556;2023-07-20T14:20:10;23.50;61.50
52743;DHT22;55583;53.012;6.556;2023-07-20T14:22:36;23.40;61.00
52743;DHT22;55583;53.012;6.556;2023-07-20T14:25:02;23.40;60.80
52743;DHT22;55583;53.012;6.556;2023-07-20T14:27:28;23.40;60.60
52743;DHT22;55583;53.012;6.556;2023-07-20T14:29:54;23.40;60.00
52743;DHT22;55583;53.012;6.556;2023-07-20T14:32:20;23.70;59.70
52743;DHT22;55583;53.012;6.556;2023-07-20T14:34:46;24.20;58.60
52743;DHT22;55583;53.012;6.556;2023-07-20T14:37:11;24.60;58.40
52743;DHT22;55583;53.012;6.556;2023-07-20T14:39:38;25.20;58.20
52743;DHT22;55583;53.012;6.556;2023-07-20T14:42:04;25.80;57.00
52743;DHT22;55583;53.012;6.556;2023-07-20T14:44:30;25.60;56.50
52743;DHT22;55583;53.012;6.556;2023-07-20T14:46:55;25.20;57.00
52743;DHT22;55583;53.012;6.556;2023-07-20T14:49:21;24.80;57.60
52743;DHT22;55583;53.012;6.556;2023-07-20T14:51:47;24.40;58.20
52743;DHT22;55583;53.012;6.556;2023-07-20T14:54:13;24.00;59.00
52743;DHT22;55583;53.012;6.556;2023-07-20T14:56:39;23.80;59.70
52743;DHT22;55583;53.012;6.556;2023-07-20T14:59:14;23.50;59.80
52743;DHT22;55583;53.012;6.556;2023-07-20T15:01:39;23.30;60.10
52743;DHT22;55583;53.012;6.556;2023-07-20T15:04:05;23.20;60.60
52743;DHT22;55583;53.012;6.556;2023-07-20T15:06:31;23.20;61.20
52743;DHT22;55583;53.012;6.556;2023-07-20T15:08:57;23.30;61.50
52743;DHT22;55583;53.012;6.556;2023-07-20T15:11:23;23.60;61.40
52743;DHT22;55583;53.012;6.556;2023-07-20T15:13:49;23.90;60.50
52743;DHT22;55583;53.012;6.556;2023-07-20T15:16:14;23.90;59.90
52743;DHT22;55583;53.012;6.556;2023-07-20T15:18:40;23.90;59.70
52743;DHT22;55583;53.012;6.556;2023-07-20T15:21:06;23.90;59.80
52743;DHT22;55583;53.012;6.556;2023-07-20T15:23:31;23.90;60.40
52743;DHT22;55583;53.012;6.556;2023-07-20T15:25:57;24.30;60.30
52743;DHT22;55583;53.012;6.556;2023-07-20T15:28:23;24.60;59.20
52743;DHT22;55583;53.012;6.556;2023-07-20T15:30:48;24.60;58.90
52743;DHT22;55583;53.012;6.556;2023-07-20T15:33:14;24.40;59.00
52743;DHT22;55583;53.012;6.556;2023-07-20T15:35:40;24.20;59.50
52743;DHT22;55583;53.012;6.556;2023-07-20T15:38:05;24.00;59.70
52743;DHT22;55583;53.012;6.556;2023-07-20T15:40:31;23.70;59.20